createdAt,value
2018-04-29T00:00:39.228Z,997.86
2018-04-29T00:01:19.749Z,997.82
2018-04-29T00:02:00.263Z,997.89
2018-04-29T00:02:40.806Z,997.95
2018-04-29T00:03:21.306Z,997.94
2018-04-29T00:04:01.837Z,997.98
2018-04-29T00:04:42.342Z,997.99
2018-04-29T00:05:22.867Z,997.95
2018-04-29T00:06:03.383Z,997.93
2018-04-29T00:06:43.906Z,997.91
2018-04-29T00:07:24.430Z,997.9
2018-04-29T00:08:04.950Z,997.9
2018-04-29T00:08:45.470Z,997.94
2018-04-29T00:09:25.987Z,997.9
2018-04-29T00:10:06.507Z,997.88
2018-04-29T00:10:47.051Z,997.86
2018-04-29T00:11:27.567Z,997.87
2018-04-29T00:12:08.102Z,997.84
2018-04-29T00:12:48.627Z,997.87
2018-04-29T00:13:29.157Z,997.83
2018-04-29T00:14:09.697Z,997.85
2018-04-29T00:14:50.209Z,997.88
2018-04-29T00:15:30.726Z,997.89
2018-04-29T00:16:11.251Z,997.89
2018-04-29T00:16:51.775Z,997.84
2018-04-29T00:17:32.290Z,997.84
2018-04-29T00:18:12.809Z,997.8
2018-04-29T00:18:53.329Z,997.79
2018-04-29T00:19:33.843Z,997.78
2018-04-29T00:20:14.372Z,997.78
2018-04-29T00:20:54.902Z,997.78
2018-04-29T00:21:35.417Z,997.78
2018-04-29T00:22:15.958Z,997.75
2018-04-29T00:22:56.472Z,997.73
2018-04-29T00:23:37.008Z,997.77
2018-04-29T00:24:17.531Z,997.74
2018-04-29T00:24:58.051Z,997.76
2018-04-29T00:25:38.574Z,997.77
2018-04-29T00:26:19.095Z,997.76
2018-04-29T00:26:59.644Z,997.78
2018-04-29T00:27:40.151Z,997.77
2018-04-29T00:28:20.675Z,997.85
2018-04-29T00:29:01.196Z,997.8
2018-04-29T00:29:41.715Z,997.79
2018-04-29T00:30:22.258Z,997.79
2018-04-29T00:31:02.777Z,997.76
2018-04-29T00:31:43.315Z,997.75
2018-04-29T00:32:23.854Z,997.76
2018-04-29T00:33:04.374Z,997.73
2018-04-29T00:33:44.883Z,997.71
2018-04-29T00:34:25.446Z,997.69
2018-04-29T00:35:05.992Z,997.67
2018-04-29T00:35:46.506Z,997.56
2018-04-29T00:36:27.032Z,997.6
2018-04-29T00:37:07.553Z,997.58
2018-04-29T00:37:48.072Z,997.58
2018-04-29T00:38:28.594Z,997.51
2018-04-29T00:39:09.115Z,997.51
2018-04-29T00:39:49.627Z,997.48
2018-04-29T00:40:30.158Z,997.51
2018-04-29T00:41:10.666Z,997.43
2018-04-29T00:41:51.186Z,997.45
2018-04-29T00:42:31.702Z,997.42
2018-04-29T00:43:12.228Z,997.42
2018-04-29T00:43:52.745Z,997.42
2018-04-29T00:44:33.265Z,997.38
2018-04-29T00:45:13.788Z,997.34
2018-04-29T00:45:54.302Z,997.32
2018-04-29T00:46:34.827Z,997.25
2018-04-29T00:47:15.389Z,997.29
2018-04-29T00:47:55.912Z,997.22
2018-04-29T00:48:36.437Z,997.26
2018-04-29T00:49:16.951Z,997.22
2018-04-29T00:49:57.487Z,997.25
2018-04-29T00:50:38.006Z,997.28
2018-04-29T00:51:18.526Z,997.31
2018-04-29T00:51:59.054Z,997.31
2018-04-29T00:52:39.594Z,997.33
2018-04-29T00:53:20.173Z,997.32
2018-04-29T00:54:00.651Z,997.31
2018-04-29T00:54:41.169Z,997.31
2018-04-29T00:55:21.683Z,997.29
2018-04-29T00:56:02.210Z,997.31
2018-04-29T00:56:42.728Z,997.31
2018-04-29T00:57:23.240Z,997.28
2018-04-29T00:58:03.759Z,997.28
2018-04-29T00:58:44.270Z,997.28
2018-04-29T00:59:24.802Z,997.29
2018-04-29T01:00:05.324Z,997.27
2018-04-29T01:00:45.835Z,997.31
2018-04-29T01:01:26.352Z,997.24
2018-04-29T01:02:06.875Z,997.26
2018-04-29T01:02:47.381Z,997.2
2018-04-29T01:03:27.901Z,997.26
2018-04-29T01:04:08.424Z,997.26
2018-04-29T01:04:48.952Z,997.23
2018-04-29T01:05:29.465Z,997.27
2018-04-29T01:06:09.988Z,997.29
2018-04-29T01:06:50.503Z,997.29
2018-04-29T01:07:31.017Z,997.31
2018-04-29T01:08:11.537Z,997.28
2018-04-29T01:08:52.053Z,997.27
2018-04-29T01:09:32.575Z,997.24
2018-04-29T01:10:13.105Z,997.26
2018-04-29T01:10:53.631Z,997.24
2018-04-29T01:11:34.149Z,997.22
2018-04-29T01:12:14.677Z,997.26
2018-04-29T01:12:55.190Z,997.3
2018-04-29T01:13:35.696Z,997.29
2018-04-29T01:14:16.238Z,997.29
2018-04-29T01:14:56.739Z,997.22
2018-04-29T01:15:37.312Z,997.27
2018-04-29T01:16:17.817Z,997.19
2018-04-29T01:16:58.321Z,997.25
2018-04-29T01:17:38.835Z,997.27
2018-04-29T01:18:19.363Z,997.21
2018-04-29T01:18:59.881Z,997.19
2018-04-29T01:19:40.403Z,997.21
2018-04-29T01:20:20.929Z,997.2
2018-04-29T01:21:01.447Z,997.19
2018-04-29T01:21:41.981Z,997.25
2018-04-29T01:22:22.504Z,997.28
2018-04-29T01:23:03.089Z,997.26
2018-04-29T01:23:43.540Z,997.27
2018-04-29T01:24:24.060Z,997.21
2018-04-29T01:25:04.583Z,997.21
2018-04-29T01:25:45.103Z,997.22
2018-04-29T01:26:25.623Z,997.16
2018-04-29T01:27:06.158Z,997.12
2018-04-29T01:27:46.679Z,997.17
2018-04-29T01:28:27.240Z,997.13
2018-04-29T01:29:07.754Z,997.07
2018-04-29T01:29:48.283Z,997.09
2018-04-29T01:30:28.814Z,997.05
2018-04-29T01:31:09.341Z,997.05
2018-04-29T01:31:49.860Z,997.04
2018-04-29T01:32:30.373Z,997.01
2018-04-29T01:33:10.897Z,997.07
2018-04-29T01:33:51.400Z,997.04
2018-04-29T01:34:31.923Z,997.03
2018-04-29T01:35:12.443Z,997.03
2018-04-29T01:35:52.976Z,997.04
2018-04-29T01:36:33.500Z,997.04
2018-04-29T01:37:14.026Z,997.05
2018-04-29T01:37:54.548Z,997.06
2018-04-29T01:38:35.066Z,997.01
2018-04-29T01:39:15.575Z,997.05
2018-04-29T01:39:56.098Z,997.02
2018-04-29T01:40:36.611Z,997.02
2018-04-29T01:41:17.139Z,997.06
2018-04-29T01:41:57.671Z,996.98
2018-04-29T01:42:38.197Z,996.97
2018-04-29T01:43:18.711Z,996.95
2018-04-29T01:43:59.234Z,996.92
2018-04-29T01:44:39.750Z,996.93
2018-04-29T01:45:20.256Z,996.92
2018-04-29T01:46:00.779Z,996.91
2018-04-29T01:46:41.302Z,996.95
2018-04-29T01:47:21.823Z,996.9
2018-04-29T01:48:02.349Z,996.88
2018-04-29T01:48:42.863Z,996.85
2018-04-29T01:49:23.401Z,996.88
2018-04-29T01:50:03.905Z,996.82
2018-04-29T01:50:44.418Z,996.85
2018-04-29T01:51:24.926Z,996.86
2018-04-29T01:52:05.446Z,996.89
2018-04-29T01:52:45.964Z,996.89
2018-04-29T01:53:26.497Z,996.86
2018-04-29T01:54:07.014Z,996.81
2018-04-29T01:54:47.530Z,996.81
2018-04-29T01:55:28.077Z,996.8
2018-04-29T01:56:08.580Z,996.81
2018-04-29T01:56:49.100Z,996.83
2018-04-29T01:57:29.610Z,996.8
2018-04-29T01:58:10.123Z,996.84
2018-04-29T01:58:50.639Z,996.78
2018-04-29T01:59:31.149Z,996.76
2018-04-29T02:00:11.658Z,996.81
2018-04-29T02:00:52.183Z,996.79
2018-04-29T02:01:32.698Z,996.78
2018-04-29T02:02:13.212Z,996.8
2018-04-29T02:02:53.724Z,996.8
2018-04-29T02:03:34.253Z,996.77
2018-04-29T02:04:14.766Z,996.79
2018-04-29T02:04:55.283Z,996.84
2018-04-29T02:05:35.790Z,996.85
2018-04-29T02:06:16.320Z,996.89
2018-04-29T02:06:56.859Z,996.87
2018-04-29T02:07:37.381Z,996.81
2018-04-29T02:08:17.893Z,996.78
2018-04-29T02:08:58.433Z,996.82
2018-04-29T02:09:38.954Z,996.83
2018-04-29T02:10:19.459Z,996.81
2018-04-29T02:10:59.976Z,996.76
2018-04-29T02:11:40.504Z,996.78
2018-04-29T02:12:21.033Z,996.74
2018-04-29T02:13:01.558Z,996.71
2018-04-29T02:13:42.075Z,996.75
2018-04-29T02:14:22.591Z,996.7
2018-04-29T02:15:03.112Z,996.69
2018-04-29T02:15:44.323Z,996.62
2018-04-29T02:16:24.141Z,996.64
2018-04-29T02:17:04.666Z,996.67
2018-04-29T02:17:45.193Z,996.63
2018-04-29T02:18:25.714Z,996.62
2018-04-29T02:19:06.243Z,996.58
2018-04-29T02:19:46.775Z,996.57
2018-04-29T02:20:27.324Z,996.61
2018-04-29T02:21:07.808Z,996.64
2018-04-29T02:21:48.332Z,996.61
2018-04-29T02:22:28.873Z,996.57
2018-04-29T02:23:09.392Z,996.58
2018-04-29T02:23:49.909Z,996.59
2018-04-29T02:24:30.423Z,996.56
2018-04-29T02:25:10.939Z,996.53
2018-04-29T02:25:51.457Z,996.56
2018-04-29T02:26:31.977Z,996.51
2018-04-29T02:27:12.488Z,996.52
2018-04-29T02:27:53.006Z,996.5
2018-04-29T02:28:33.541Z,996.49
2018-04-29T02:29:14.063Z,996.51
2018-04-29T02:29:54.588Z,996.49
2018-04-29T02:30:35.110Z,996.52
2018-04-29T02:31:15.715Z,996.52
2018-04-29T02:31:56.149Z,996.55
2018-04-29T02:32:36.670Z,996.58
2018-04-29T02:33:17.221Z,996.61
2018-04-29T02:33:57.758Z,996.63
2018-04-29T02:34:38.252Z,996.6
2018-04-29T02:35:18.774Z,996.61
2018-04-29T02:35:59.286Z,996.59
2018-04-29T02:36:39.822Z,996.52
2018-04-29T02:37:20.345Z,996.48
2018-04-29T02:38:00.868Z,996.4
2018-04-29T02:38:41.381Z,996.31
2018-04-29T02:39:21.902Z,996.27
2018-04-29T02:40:02.433Z,996.17
2018-04-29T02:40:42.944Z,996.08
2018-04-29T02:41:23.450Z,995.96
2018-04-29T02:42:03.969Z,995.89
2018-04-29T02:42:44.491Z,995.88
2018-04-29T02:43:25.023Z,995.83
2018-04-29T02:44:05.538Z,995.74
2018-04-29T02:44:46.055Z,995.79
2018-04-29T02:45:26.573Z,995.74
2018-04-29T02:46:07.085Z,995.69
2018-04-29T02:46:47.597Z,995.68
2018-04-29T02:47:28.113Z,995.66
2018-04-29T02:48:08.632Z,995.71
2018-04-29T02:48:49.149Z,995.7
2018-04-29T02:49:29.675Z,995.68
2018-04-29T02:50:10.181Z,995.73
2018-04-29T02:50:50.704Z,995.74
2018-04-29T02:51:31.225Z,995.74
2018-04-29T02:52:11.740Z,995.74
2018-04-29T02:52:52.250Z,995.73
2018-04-29T02:53:32.769Z,995.72
2018-04-29T02:54:13.286Z,995.74
2018-04-29T02:54:53.803Z,995.69
2018-04-29T02:55:34.332Z,995.76
2018-04-29T02:56:14.852Z,995.77
2018-04-29T02:56:55.372Z,995.74
2018-04-29T02:57:35.889Z,995.78
2018-04-29T02:58:16.403Z,995.78
2018-04-29T02:58:56.915Z,995.8
2018-04-29T02:59:37.429Z,995.76
2018-04-29T03:00:17.956Z,995.73
2018-04-29T03:00:58.487Z,995.72
2018-04-29T03:01:39.005Z,995.7
2018-04-29T03:02:19.524Z,995.69
2018-04-29T03:03:00.037Z,995.69
2018-04-29T03:03:40.569Z,995.7
2018-04-29T03:04:21.088Z,995.7
2018-04-29T03:05:01.591Z,995.69
2018-04-29T03:05:42.108Z,995.7
2018-04-29T03:06:22.623Z,995.65
2018-04-29T03:07:03.134Z,995.64
2018-04-29T03:07:43.669Z,995.61
2018-04-29T03:08:24.179Z,995.57
2018-04-29T03:09:04.688Z,995.58
2018-04-29T03:09:45.208Z,995.58
2018-04-29T03:10:25.698Z,995.65
2018-04-29T03:11:06.232Z,995.61
2018-04-29T03:11:46.750Z,995.65
2018-04-29T03:12:27.297Z,995.67
2018-04-29T03:13:07.812Z,995.65
2018-04-29T03:13:48.340Z,995.71
2018-04-29T03:14:28.865Z,995.76
2018-04-29T03:15:09.377Z,995.71
2018-04-29T03:15:49.899Z,995.72
2018-04-29T03:16:30.446Z,995.71
2018-04-29T03:17:10.957Z,995.7
2018-04-29T03:17:51.480Z,995.68
2018-04-29T03:18:32.009Z,995.69
2018-04-29T03:19:12.532Z,995.67
2018-04-29T03:19:53.047Z,995.68
2018-04-29T03:20:33.570Z,995.68
2018-04-29T03:21:14.080Z,995.7
2018-04-29T03:21:54.598Z,995.66
2018-04-29T03:22:35.114Z,995.62
2018-04-29T03:23:15.634Z,995.65
2018-04-29T03:23:56.152Z,995.63
2018-04-29T03:24:36.677Z,995.66
2018-04-29T03:25:17.197Z,995.67
2018-04-29T03:25:57.712Z,995.63
2018-04-29T03:26:38.226Z,995.64
2018-04-29T03:27:18.768Z,995.6
2018-04-29T03:27:59.377Z,995.58
2018-04-29T03:28:39.810Z,995.53
2018-04-29T03:29:20.348Z,995.5
2018-04-29T03:30:00.871Z,995.54
2018-04-29T03:30:41.396Z,995.58
2018-04-29T03:31:21.918Z,995.61
2018-04-29T03:32:02.437Z,995.6
2018-04-29T03:32:42.947Z,995.61
2018-04-29T03:33:23.463Z,995.55
2018-04-29T03:34:03.989Z,995.59
2018-04-29T03:34:44.507Z,995.54
2018-04-29T03:35:25.039Z,995.59
2018-04-29T03:36:05.557Z,995.56
2018-04-29T03:36:46.079Z,995.53
2018-04-29T03:37:26.616Z,995.51
2018-04-29T03:38:07.132Z,995.52
2018-04-29T03:38:47.652Z,995.5
2018-04-29T03:39:28.172Z,995.5
2018-04-29T03:40:08.694Z,995.54
2018-04-29T03:40:49.211Z,995.6
2018-04-29T03:41:29.735Z,995.66
2018-04-29T03:42:10.247Z,995.63
2018-04-29T03:42:50.757Z,995.68
2018-04-29T03:43:31.289Z,995.62
2018-04-29T03:44:11.799Z,995.63
2018-04-29T03:44:52.311Z,995.63
2018-04-29T03:45:32.828Z,995.61
2018-04-29T03:46:13.344Z,995.57
2018-04-29T03:46:53.856Z,995.56
2018-04-29T03:47:34.392Z,995.55
2018-04-29T03:48:14.903Z,995.49
2018-04-29T03:48:55.411Z,995.47
2018-04-29T03:49:35.926Z,995.52
2018-04-29T03:50:16.444Z,995.46
2018-04-29T03:50:56.963Z,995.42
2018-04-29T03:51:37.485Z,995.38
2018-04-29T03:52:17.997Z,995.43
2018-04-29T03:52:58.524Z,995.43
2018-04-29T03:53:39.029Z,995.44
2018-04-29T03:54:19.554Z,995.42
2018-04-29T03:55:00.083Z,995.48
2018-04-29T03:55:40.616Z,995.43
2018-04-29T03:56:21.142Z,995.39
2018-04-29T03:57:01.662Z,995.46
2018-04-29T03:57:42.176Z,995.51
2018-04-29T03:58:22.698Z,995.49
2018-04-29T03:59:03.224Z,995.52
2018-04-29T03:59:43.740Z,995.54
2018-04-29T04:00:24.246Z,995.58
2018-04-29T04:01:04.796Z,995.62
2018-04-29T04:01:51.287Z,995.64
2018-04-29T04:02:25.864Z,995.69
2018-04-29T04:03:06.395Z,995.65
2018-04-29T04:03:46.923Z,995.68
2018-04-29T04:04:27.445Z,995.66
2018-04-29T04:05:07.948Z,995.68
2018-04-29T04:05:48.474Z,995.68
2018-04-29T04:06:28.990Z,995.65
2018-04-29T04:07:09.503Z,995.64
2018-04-29T04:07:50.018Z,995.66
2018-04-29T04:08:30.562Z,995.66
2018-04-29T04:09:11.058Z,995.58
2018-04-29T04:09:51.688Z,995.62
2018-04-29T04:10:32.102Z,995.59
2018-04-29T04:11:12.633Z,995.54
2018-04-29T04:11:53.143Z,995.51
2018-04-29T04:12:33.677Z,995.51
2018-04-29T04:13:14.193Z,995.51
2018-04-29T04:13:54.698Z,995.45
2018-04-29T04:14:35.232Z,995.47
2018-04-29T04:15:15.754Z,995.53
2018-04-29T04:15:56.275Z,995.52
2018-04-29T04:16:36.782Z,995.51
2018-04-29T04:17:17.304Z,995.55
2018-04-29T04:17:57.821Z,995.54
2018-04-29T04:18:38.334Z,995.51
2018-04-29T04:19:18.851Z,995.53
2018-04-29T04:19:59.361Z,995.55
2018-04-29T04:20:39.882Z,995.52
2018-04-29T04:21:20.401Z,995.49
2018-04-29T04:22:00.917Z,995.52
2018-04-29T04:22:41.455Z,995.5
2018-04-29T04:23:21.956Z,995.47
2018-04-29T04:24:02.482Z,995.51
2018-04-29T04:24:43.003Z,995.49
2018-04-29T04:25:23.530Z,995.52
2018-04-29T04:26:04.055Z,995.54
2018-04-29T04:26:44.565Z,995.52
2018-04-29T04:27:25.103Z,995.57
2018-04-29T04:28:05.615Z,995.55
2018-04-29T04:28:46.132Z,995.55
2018-04-29T04:29:26.651Z,995.56
2018-04-29T04:30:07.164Z,995.63
2018-04-29T04:30:47.760Z,995.59
2018-04-29T04:31:28.200Z,995.59
2018-04-29T04:32:08.720Z,995.66
2018-04-29T04:32:49.232Z,995.61
2018-04-29T04:33:29.751Z,995.6
2018-04-29T04:34:10.359Z,995.64
2018-04-29T04:34:50.785Z,995.63
2018-04-29T04:35:31.325Z,995.61
2018-04-29T04:36:11.834Z,995.63
2018-04-29T04:36:52.347Z,995.68
2018-04-29T04:37:32.873Z,995.62
2018-04-29T04:38:13.383Z,995.67
2018-04-29T04:38:53.900Z,995.71
2018-04-29T04:39:34.419Z,995.73
2018-04-29T04:40:14.974Z,995.68
2018-04-29T04:40:55.462Z,995.71
2018-04-29T04:41:35.985Z,995.65
2018-04-29T04:42:16.510Z,995.69
2018-04-29T04:42:57.030Z,995.65
2018-04-29T04:43:37.549Z,995.65
2018-04-29T04:44:18.071Z,995.65
2018-04-29T04:44:58.588Z,995.66
2018-04-29T04:45:39.104Z,995.66
2018-04-29T04:46:19.628Z,995.63
2018-04-29T04:47:00.288Z,995.67
2018-04-29T04:47:40.801Z,995.64
2018-04-29T04:48:21.314Z,995.65
2018-04-29T04:49:01.834Z,995.67
2018-04-29T04:49:42.342Z,995.68
2018-04-29T04:50:22.868Z,995.7
2018-04-29T04:51:03.385Z,995.67
2018-04-29T04:51:43.913Z,995.72
2018-04-29T04:52:24.432Z,995.72
2018-04-29T04:53:04.960Z,995.72
2018-04-29T04:53:45.479Z,995.7
2018-04-29T04:54:26.001Z,995.77
2018-04-29T04:55:06.534Z,995.79
2018-04-29T04:55:47.072Z,995.79
2018-04-29T04:56:27.597Z,995.84
2018-04-29T04:57:08.105Z,995.83
2018-04-29T04:57:48.641Z,995.86
2018-04-29T04:58:29.160Z,995.84
2018-04-29T04:59:09.686Z,995.86
2018-04-29T04:59:50.193Z,995.85
2018-04-29T05:00:30.719Z,995.88
2018-04-29T05:01:11.241Z,995.9
2018-04-29T05:01:51.783Z,995.91
2018-04-29T05:02:32.302Z,995.9
2018-04-29T05:03:12.824Z,995.91
2018-04-29T05:03:53.350Z,995.92
2018-04-29T05:04:33.868Z,995.92
2018-04-29T05:05:14.386Z,995.97
2018-04-29T05:05:54.920Z,995.97
2018-04-29T05:06:35.442Z,995.99
2018-04-29T05:07:16.034Z,995.97
2018-04-29T05:07:56.498Z,996
2018-04-29T05:08:37.017Z,996.02
2018-04-29T05:09:17.537Z,996.03
2018-04-29T05:09:58.058Z,995.97
2018-04-29T05:10:38.557Z,996.04
2018-04-29T05:11:19.068Z,996.06
2018-04-29T05:11:59.578Z,996.05
2018-04-29T05:12:40.098Z,996.07
2018-04-29T05:13:20.627Z,996.07
2018-04-29T05:14:01.140Z,996.1
2018-04-29T05:14:41.676Z,996.03
2018-04-29T05:15:22.201Z,996.01
2018-04-29T05:16:02.720Z,995.97
2018-04-29T05:16:43.231Z,995.98
2018-04-29T05:17:23.757Z,995.98
2018-04-29T05:18:04.263Z,995.97
2018-04-29T05:18:44.783Z,995.96
2018-04-29T05:19:25.312Z,995.94
2018-04-29T05:20:05.821Z,995.91
2018-04-29T05:20:46.342Z,995.93
2018-04-29T05:21:26.863Z,995.9
2018-04-29T05:22:07.438Z,995.9
2018-04-29T05:22:47.895Z,995.88
2018-04-29T05:23:28.423Z,995.87
2018-04-29T05:24:08.926Z,995.79
2018-04-29T05:24:49.476Z,995.87
2018-04-29T05:25:29.978Z,995.88
2018-04-29T05:26:10.489Z,995.86
2018-04-29T05:26:51.022Z,995.87
2018-04-29T05:27:31.551Z,995.92
2018-04-29T05:28:12.066Z,995.94
2018-04-29T05:28:52.582Z,996.01
2018-04-29T05:29:33.099Z,995.96
2018-04-29T05:30:13.614Z,995.92
2018-04-29T05:30:54.118Z,995.99
2018-04-29T05:31:34.647Z,995.95
2018-04-29T05:32:15.163Z,995.96
2018-04-29T05:32:55.678Z,995.91
2018-04-29T05:33:36.201Z,995.91
2018-04-29T05:34:16.718Z,995.92
2018-04-29T05:34:57.235Z,995.87
2018-04-29T05:35:37.764Z,995.9
2018-04-29T05:36:18.289Z,995.85
2018-04-29T05:36:58.815Z,995.87
2018-04-29T05:37:39.331Z,995.89
2018-04-29T05:38:19.860Z,995.86
2018-04-29T05:39:00.381Z,995.92
2018-04-29T05:39:40.902Z,995.95
2018-04-29T05:40:21.425Z,995.92
2018-04-29T05:41:01.943Z,995.92
2018-04-29T05:41:42.459Z,995.86
2018-04-29T05:42:22.978Z,995.87
2018-04-29T05:43:03.482Z,995.9
2018-04-29T05:43:44.016Z,995.84
2018-04-29T05:44:24.530Z,995.85
2018-04-29T05:45:05.051Z,995.81
2018-04-29T05:45:45.570Z,995.82
2018-04-29T05:46:26.091Z,995.81
2018-04-29T05:47:06.619Z,995.8
2018-04-29T05:47:47.157Z,995.9
2018-04-29T05:48:27.676Z,995.93
2018-04-29T05:49:08.196Z,995.92
2018-04-29T05:49:48.762Z,995.88
2018-04-29T05:50:29.223Z,995.86
2018-04-29T05:51:09.737Z,995.89
2018-04-29T05:51:50.255Z,995.94
2018-04-29T05:52:30.771Z,995.91
2018-04-29T05:53:11.290Z,995.87
2018-04-29T05:53:51.806Z,995.85
2018-04-29T05:54:32.323Z,995.78
2018-04-29T05:55:12.851Z,995.87
2018-04-29T05:55:53.359Z,995.78
2018-04-29T05:56:33.878Z,995.75
2018-04-29T05:57:14.394Z,995.75
2018-04-29T05:57:54.920Z,995.72
2018-04-29T05:58:35.440Z,995.74
2018-04-29T05:59:15.957Z,995.69
2018-04-29T05:59:56.478Z,995.75
2018-04-29T06:00:36.991Z,995.65
2018-04-29T06:01:17.509Z,995.72
2018-04-29T06:01:58.022Z,995.62
2018-04-29T06:02:38.550Z,995.64
2018-04-29T06:03:19.075Z,995.62
2018-04-29T06:03:59.598Z,995.69
2018-04-29T06:04:40.114Z,995.6
2018-04-29T06:05:20.640Z,995.59
2018-04-29T06:06:01.171Z,995.58
2018-04-29T06:06:41.711Z,995.55
2018-04-29T06:07:22.218Z,995.53
2018-04-29T06:08:02.746Z,995.58
2018-04-29T06:08:43.251Z,995.61
2018-04-29T06:09:23.773Z,995.6
2018-04-29T06:10:04.699Z,995.58
2018-04-29T06:10:45.218Z,995.59
2018-04-29T06:11:25.751Z,995.59
2018-04-29T06:12:06.270Z,995.54
2018-04-29T06:12:46.787Z,995.56
2018-04-29T06:13:27.307Z,995.54
2018-04-29T06:14:07.917Z,995.55
2018-04-29T06:14:48.356Z,995.53
2018-04-29T06:15:28.887Z,995.58
2018-04-29T06:16:09.402Z,995.54
2018-04-29T06:16:49.929Z,995.57
2018-04-29T06:17:30.461Z,995.6
2018-04-29T06:18:10.992Z,995.61
2018-04-29T06:18:51.518Z,995.59
2018-04-29T06:19:32.037Z,995.59
2018-04-29T06:20:12.557Z,995.57
2018-04-29T06:20:53.064Z,995.57
2018-04-29T06:21:33.573Z,995.56
2018-04-29T06:22:14.111Z,995.55
2018-04-29T06:22:54.635Z,995.56
2018-04-29T06:23:35.167Z,995.58
2018-04-29T06:24:15.677Z,995.6
2018-04-29T06:24:56.196Z,995.6
2018-04-29T06:25:36.742Z,995.59
2018-04-29T06:26:17.267Z,995.61
2018-04-29T06:26:57.768Z,995.59
2018-04-29T06:27:38.302Z,995.57
2018-04-29T06:28:18.825Z,995.58
2018-04-29T06:28:59.342Z,995.59
2018-04-29T06:29:39.870Z,995.58
2018-04-29T06:30:20.387Z,995.58
2018-04-29T06:31:00.912Z,995.54
2018-04-29T06:31:41.428Z,995.5
2018-04-29T06:32:21.936Z,995.53
2018-04-29T06:33:02.474Z,995.47
2018-04-29T06:33:43.009Z,995.44
2018-04-29T06:34:23.521Z,995.44
2018-04-29T06:35:04.084Z,995.41
2018-04-29T06:35:44.564Z,995.43
2018-04-29T06:36:25.076Z,995.45
2018-04-29T06:37:05.722Z,995.35
2018-04-29T06:37:46.257Z,995.38
2018-04-29T06:38:26.768Z,995.4
2018-04-29T06:39:07.310Z,995.34
2018-04-29T06:39:47.835Z,995.32
2018-04-29T06:40:28.493Z,995.29
2018-04-29T06:41:09.028Z,995.32
2018-04-29T06:41:49.550Z,995.31
2018-04-29T06:42:30.073Z,995.28
2018-04-29T06:43:10.602Z,995.29
2018-04-29T06:43:51.160Z,995.35
2018-04-29T06:44:31.764Z,995.31
2018-04-29T06:45:12.314Z,995.29
2018-04-29T06:45:52.838Z,995.26
2018-04-29T06:46:33.362Z,995.29
2018-04-29T06:47:13.894Z,995.28
2018-04-29T06:47:54.422Z,995.29
2018-04-29T06:48:34.944Z,995.24
2018-04-29T06:49:15.461Z,995.27
2018-04-29T06:49:55.976Z,995.24
2018-04-29T06:50:36.490Z,995.19
2018-04-29T06:51:17.000Z,995.15
2018-04-29T06:51:57.495Z,995.2
2018-04-29T06:52:38.011Z,995.12
2018-04-29T06:53:18.535Z,995.16
2018-04-29T06:53:59.046Z,995.16
2018-04-29T06:54:39.571Z,995.13
2018-04-29T06:55:20.100Z,995.17
2018-04-29T06:56:00.622Z,995.15
2018-04-29T06:56:41.145Z,995.21
2018-04-29T06:57:21.674Z,995.13
2018-04-29T06:58:02.193Z,995.1
2018-04-29T06:58:42.759Z,995.13
2018-04-29T06:59:23.237Z,995.2
2018-04-29T07:00:03.772Z,995.2
2018-04-29T07:00:44.315Z,995.18
2018-04-29T07:01:24.812Z,995.19
2018-04-29T07:02:05.322Z,995.22
2018-04-29T07:02:45.831Z,995.2
2018-04-29T07:03:26.350Z,995.26
2018-04-29T07:04:06.872Z,995.27
2018-04-29T07:04:47.395Z,995.16
2018-04-29T07:05:27.917Z,995.23
2018-04-29T07:06:08.437Z,995.24
2018-04-29T07:06:48.954Z,995.14
2018-04-29T07:07:29.474Z,995.12
2018-04-29T07:08:10.014Z,995.1
2018-04-29T07:08:50.518Z,995.11
2018-04-29T07:09:31.052Z,995.08
2018-04-29T07:10:11.577Z,995.09
2018-04-29T07:10:52.102Z,995.03
2018-04-29T07:11:32.618Z,995.11
2018-04-29T07:12:13.159Z,995.06
2018-04-29T07:12:53.689Z,995.03
2018-04-29T07:13:34.201Z,994.99
2018-04-29T07:14:14.724Z,995.02
2018-04-29T07:14:55.258Z,995.03
2018-04-29T07:15:35.762Z,995.06
2018-04-29T07:16:16.315Z,995.03
2018-04-29T07:16:56.840Z,995.05
2018-04-29T07:17:37.417Z,995.02
2018-04-29T07:18:17.974Z,994.98
2018-04-29T07:18:58.485Z,994.94
2018-04-29T07:19:39.004Z,994.93
2018-04-29T07:20:19.508Z,994.96
2018-04-29T07:21:00.205Z,995
2018-04-29T07:21:40.630Z,994.96
2018-04-29T07:22:21.147Z,994.92
2018-04-29T07:23:01.667Z,994.98
2018-04-29T07:23:42.191Z,995.06
2018-04-29T07:24:22.703Z,994.99
2018-04-29T07:25:03.404Z,995.04
2018-04-29T07:25:43.927Z,995.02
2018-04-29T07:26:24.440Z,995.01
2018-04-29T07:27:04.966Z,995.05
2018-04-29T07:27:45.499Z,995.1
2018-04-29T07:28:26.018Z,995.04
2018-04-29T07:29:06.533Z,995.07
2018-04-29T07:29:47.059Z,995.09
2018-04-29T07:30:27.587Z,995.07
2018-04-29T07:31:08.107Z,995.09
2018-04-29T07:31:48.625Z,995.1
2018-04-29T07:32:29.164Z,995.08
2018-04-29T07:33:09.675Z,995.12
2018-04-29T07:33:50.189Z,995.04
2018-04-29T07:34:30.707Z,995.04
2018-04-29T07:35:11.218Z,994.97
2018-04-29T07:35:51.736Z,995
2018-04-29T07:36:32.247Z,995.02
2018-04-29T07:37:12.768Z,995.02
2018-04-29T07:37:53.325Z,994.98
2018-04-29T07:38:33.840Z,995
2018-04-29T07:39:14.359Z,995
2018-04-29T07:39:54.915Z,995.03
2018-04-29T07:40:35.419Z,995.03
2018-04-29T07:41:15.937Z,995.05
2018-04-29T07:41:56.465Z,995.04
2018-04-29T07:42:37.054Z,995.09
2018-04-29T07:43:17.589Z,995.06
2018-04-29T07:43:58.126Z,995.1
2018-04-29T07:44:38.656Z,995.04
2018-04-29T07:45:19.176Z,995.03
2018-04-29T07:45:59.712Z,995.02
2018-04-29T07:46:40.237Z,995.12
2018-04-29T07:47:20.751Z,995.03
2018-04-29T07:48:01.272Z,995.02
2018-04-29T07:48:41.789Z,995
2018-04-29T07:49:22.317Z,995.04
2018-04-29T07:50:02.869Z,995
2018-04-29T07:50:43.390Z,995.05
2018-04-29T07:51:23.901Z,995.08
2018-04-29T07:52:04.543Z,995.06
2018-04-29T07:52:45.143Z,995.12
2018-04-29T07:53:25.611Z,995.08
2018-04-29T07:54:06.132Z,995.08
2018-04-29T07:54:46.650Z,995.06
2018-04-29T07:55:27.165Z,995.08
2018-04-29T07:56:07.686Z,995.11
2018-04-29T07:56:48.244Z,995.1
2018-04-29T07:57:28.741Z,995.11
2018-04-29T07:58:09.260Z,995.07
2018-04-29T07:58:49.799Z,995.03
2018-04-29T07:59:30.303Z,995.07
2018-04-29T08:00:10.833Z,995.08
2018-04-29T08:00:51.392Z,995.02
2018-04-29T08:01:31.897Z,995.06
2018-04-29T08:02:12.412Z,995.1
2018-04-29T08:02:52.930Z,995.08
2018-04-29T08:03:33.456Z,995.04
2018-04-29T08:04:13.994Z,995.02
2018-04-29T08:04:54.506Z,995.01
2018-04-29T08:05:35.034Z,995.01
2018-04-29T08:06:15.557Z,994.97
2018-04-29T08:06:56.096Z,994.93
2018-04-29T08:07:36.593Z,994.99
2018-04-29T08:08:17.156Z,994.99
2018-04-29T08:08:57.674Z,994.93
2018-04-29T08:09:38.204Z,994.99
2018-04-29T08:10:18.698Z,994.92
2018-04-29T08:10:59.137Z,994.9
2018-04-29T08:11:39.654Z,994.88
2018-04-29T08:12:20.170Z,994.84
2018-04-29T08:13:00.717Z,994.89
2018-04-29T08:13:41.224Z,994.88
2018-04-29T08:14:21.758Z,994.89
2018-04-29T08:15:02.295Z,994.88
2018-04-29T08:15:42.877Z,994.88
2018-04-29T08:16:23.342Z,994.89
2018-04-29T08:17:03.881Z,994.93
2018-04-29T08:17:44.407Z,994.93
2018-04-29T08:18:24.930Z,994.93
2018-04-29T08:19:05.447Z,994.94
2018-04-29T08:19:45.980Z,994.91
2018-04-29T08:20:26.498Z,994.9
2018-04-29T08:21:07.017Z,994.92
2018-04-29T08:21:47.550Z,994.88
2018-04-29T08:22:28.058Z,994.86
2018-04-29T08:23:08.561Z,994.85
2018-04-29T08:23:49.108Z,994.89
2018-04-29T08:24:29.611Z,994.84
2018-04-29T08:25:10.124Z,994.82
2018-04-29T08:25:50.646Z,994.86
2018-04-29T08:26:31.172Z,994.87
2018-04-29T08:27:11.697Z,994.88
2018-04-29T08:27:52.221Z,994.86